sensor_id;sensor_type;location;lat;lon;timestamp;pressure;altitude;pressure_sealevel;temperature;humidity
60355;BME280;46198;51.464;-0.066;2022-11-02T00:00:33;101020.69;;;9.61;100.00
60355;BME280;46198;51.464;-0.066;2022-11-02T00:03:01;101025.66;;;9.58;100.00
60355;BME280;46198;51.464;-0.066;2022-11-02T00:05:30;101028.38;;;9.58;100.00
60355;BME280;46198;51.464;-0.066;2022-11-02T00:07:58;101038.81;;;9.67;100.00
60355;BME280;46198;51.464;-0.066;2022-11-02T00:10:26;101042.78;;;9.65;100.00
60355;BME280;46198;51.464;-0.066;2022-11-02T00:12:57;101054.03;;;9.62;100.00
60355;BME280;46198;51.464;-0.066;2022-11-02T00:15:30;101052.78;;;9.71;100.00
60355;BME280;46198;51.464;-0.066;2022-11-02T00:18:01;101067.19;;;9.58;100.00
60355;BME280;46198;51.464;-0.066;2022-11-02T00:20:36;101075.31;;;9.58;100.00
60355;BME280;46198;51.464;-0.066;2022-11-02T00:23:05;101093.66;;;9.56;100.00
60355;BME280;46198;51.464;-0.066;2022-11-02T00:25:38;101089.72;;;9.59;100.00
60355;BME280;46198;51.464;-0.066;2022-11-02T00:28:09;101089.91;;;9.57;100.00
60355;BME280;46198;51.464;-0.066;2022-11-02T00:30:37;101112.84;;;9.54;100.00
60355;BME280;46198;51.464;-0.066;2022-11-02T00:33:05;101119.94;;;9.62;100.00
60355;BME280;46198;51.464;-0.066;2022-11-02T00:35:33;101115.13;;;9.51;100.00
60355;BME280;46198;51.464;-0.066;2022-11-02T00:38:02;101130.78;;;9.56;100.00
60355;BME280;46198;51.464;-0.066;2022-11-02T00:40:31;101130.97;;;9.54;100.00
60355;BME280;46198;51.464;-0.066;2022-11-02T00:42:59;101139.09;;;9.54;100.00
60355;BME280;46198;51.464;-0.066;2022-11-02T00:45:33;101130.56;;;9.57;100.00
60355;BME280;46198;51.464;-0.066;2022-11-02T00:48:01;101150.16;;;9.52;100.00
60355;BME280;46198;51.464;-0.066;2022-11-02T00:50:30;101158.91;;;9.54;100.00
60355;BME280;46198;51.464;-0.066;2022-11-02T00:52:58;101159.13;;;9.53;100.00
60355;BME280;46198;51.464;-0.066;2022-11-02T00:55:29;101169.75;;;9.48;100.00
60355;BME280;46198;51.464;-0.066;2022-11-02T00:58:01;101173.72;;;9.52;100.00
60355;BME280;46198;51.464;-0.066;2022-11-02T01:00:30;101177.88;;;9.48;100.00
60355;BME280;46198;51.464;-0.066;2022-11-02T01:03:00;101193.91;;;9.43;100.00
60355;BME280;46198;51.464;-0.066;2022-11-02T01:05:29;101206.66;;;9.49;100.00
60355;BME280;46198;51.464;-0.066;2022-11-02T01:07:57;101206.25;;;9.52;100.00
60355;BME280;46198;51.464;-0.066;2022-11-02T01:10:25;101210.81;;;9.45;100.00
60355;BME280;46198;51.464;-0.066;2022-11-02T01:12:59;101216.19;;;9.38;100.00
60355;BME280;46198;51.464;-0.066;2022-11-02T01:15:28;101218.72;;;9.40;100.00
60355;BME280;46198;51.464;-0.066;2022-11-02T01:17:57;101230.19;;;9.42;100.00
60355;BME280;46198;51.464;-0.066;2022-11-02T01:20:27;101238.94;;;9.37;100.00
60355;BME280;46198;51.464;-0.066;2022-11-02T01:22:56;101237.25;;;9.36;100.00
60355;BME280;46198;51.464;-0.066;2022-11-02T01:25:25;101245.59;;;9.35;100.00
60355;BME280;46198;51.464;-0.066;2022-11-02T01:27:53;101249.97;;;9.36;100.00
60355;BME280;46198;51.464;-0.066;2022-11-02T01:30:21;101259.78;;;9.37;100.00
60355;BME280;46198;51.464;-0.066;2022-11-02T01:32:49;101267.28;;;9.35;100.00
60355;BME280;46198;51.464;-0.066;2022-11-02T01:35:18;101269.09;;;9.27;100.00
60355;BME280;46198;51.464;-0.066;2022-11-02T01:37:48;101270.16;;;9.26;100.00
60355;BME280;46198;51.464;-0.066;2022-11-02T01:40:16;101274.34;;;9.36;100.00
60355;BME280;46198;51.464;-0.066;2022-11-02T01:42:44;101279.53;;;9.30;100.00
60355;BME280;46198;51.464;-0.066;2022-11-02T01:45:13;101285.59;;;9.32;100.00
60355;BME280;46198;51.464;-0.066;2022-11-02T01:47:43;101300.97;;;9.25;100.00
60355;BME280;46198;51.464;-0.066;2022-11-02T01:50:20;101295.78;;;9.24;100.00
60355;BME280;46198;51.464;-0.066;2022-11-02T01:52:50;101306.22;;;9.27;100.00
60355;BME280;46198;51.464;-0.066;2022-11-02T01:55:22;101307.25;;;9.26;100.00
60355;BME280;46198;51.464;-0.066;2022-11-02T01:57:55;101309.72;;;9.21;100.00
60355;BME280;46198;51.464;-0.066;2022-11-02T02:00:24;101307.19;;;9.19;100.00
60355;BME280;46198;51.464;-0.066;2022-11-02T02:02:55;101325.56;;;9.24;100.00
60355;BME280;46198;51.464;-0.066;2022-11-02T02:05:39;101330.09;;;9.17;100.00
60355;BME280;46198;51.464;-0.066;2022-11-02T02:08:12;101335.53;;;9.17;100.00
60355;BME280;46198;51.464;-0.066;2022-11-02T02:10:42;101343.22;;;9.13;100.00
60355;BME280;46198;51.464;-0.066;2022-11-02T02:13:11;101342.19;;;9.14;100.00
60355;BME280;46198;51.464;-0.066;2022-11-02T02:15:48;101334.25;;;9.13;100.00
60355;BME280;46198;51.464;-0.066;2022-11-02T02:18:22;101340.50;;;9.13;100.00
60355;BME280;46198;51.464;-0.066;2022-11-02T02:21:11;101346.34;;;9.10;100.00
60355;BME280;46198;51.464;-0.066;2022-11-02T02:24:08;101344.88;;;9.14;100.00
60355;BME280;46198;51.464;-0.066;2022-11-02T02:27:04;101354.25;;;9.12;100.00
60355;BME280;46198;51.464;-0.066;2022-11-02T02:29:45;101354.00;;;9.06;100.00
60355;BME280;46198;51.464;-0.066;2022-11-02T02:32:23;101351.69;;;9.03;100.00
60355;BME280;46198;51.464;-0.066;2022-11-02T02:34:54;101365.03;;;9.05;100.00
60355;BME280;46198;51.464;-0.066;2022-11-02T02:37:27;101365.44;;;9.02;100.00
60355;BME280;46198;51.464;-0.066;2022-11-02T02:40:03;101358.97;;;9.03;100.00
60355;BME280;46198;51.464;-0.066;2022-11-02T02:42:42;101369.47;;;9.13;100.00
60355;BME280;46198;51.464;-0.066;2022-11-02T02:45:16;101366.72;;;9.06;100.00
60355;BME280;46198;51.464;-0.066;2022-11-02T02:47:51;101375.44;;;9.01;100.00
60355;BME280;46198;51.464;-0.066;2022-11-02T02:50:24;101372.53;;;9.03;100.00
60355;BME280;46198;51.464;-0.066;2022-11-02T02:52:55;101373.34;;;9.03;100.00
60355;BME280;46198;51.464;-0.066;2022-11-02T02:55:30;101376.03;;;8.97;100.00
60355;BME280;46198;51.464;-0.066;2022-11-02T02:58:00;101387.13;;;9.02;100.00
60355;BME280;46198;51.464;-0.066;2022-11-02T03:00:32;101393.31;;;8.96;100.00
60355;BME280;46198;51.464;-0.066;2022-11-02T03:03:03;101407.03;;;8.94;100.00
60355;BME280;46198;51.464;-0.066;2022-11-02T03:05:33;101404.50;;;8.93;100.00
60355;BME280;46198;51.464;-0.066;2022-11-02T03:08:08;101402.84;;;8.92;100.00
60355;BME280;46198;51.464;-0.066;2022-11-02T03:10:43;101413.28;;;8.95;100.00
60355;BME280;46198;51.464;-0.066;2022-11-02T03:13:26;101423.28;;;8.94;100.00
60355;BME280;46198;51.464;-0.066;2022-11-02T03:16:03;101417.44;;;8.91;100.00
60355;BME280;46198;51.464;-0.066;2022-11-02T03:18:46;101426.19;;;8.93;100.00
60355;BME280;46198;51.464;-0.066;2022-11-02T03:21:26;101428.72;;;8.94;100.00
60355;BME280;46198;51.464;-0.066;2022-11-02T03:23:59;101433.47;;;8.92;100.00
60355;BME280;46198;51.464;-0.066;2022-11-02T03:26:30;101445.75;;;8.88;100.00
60355;BME280;46198;51.464;-0.066;2022-11-02T03:29:04;101449.03;;;8.83;100.00
60355;BME280;46198;51.464;-0.066;2022-11-02T03:31:40;101441.34;;;8.87;100.00
60355;BME280;46198;51.464;-0.066;2022-11-02T03:34:16;101449.03;;;8.83;100.00
60355;BME280;46198;51.464;-0.066;2022-11-02T03:36:51;101452.38;;;8.85;100.00
60355;BME280;46198;51.464;-0.066;2022-11-02T03:39:29;101456.50;;;8.81;100.00
60355;BME280;46198;51.464;-0.066;2022-11-02T03:42:00;101453.34;;;8.78;100.00
60355;BME280;46198;51.464;-0.066;2022-11-02T03:44:34;101452.78;;;8.82;100.00
60355;BME280;46198;51.464;-0.066;2022-11-02T03:47:10;101457.81;;;8.85;100.00
60355;BME280;46198;51.464;-0.066;2022-11-02T03:49:40;101461.25;;;8.79;100.00
60355;BME280;46198;51.464;-0.066;2022-11-02T03:52:15;101470.88;;;8.82;100.00
60355;BME280;46198;51.464;-0.066;2022-11-02T03:54:50;101469.78;;;8.76;100.00
60355;BME280;46198;51.464;-0.066;2022-11-02T03:57:24;101473.13;;;8.78;100.00
60355;BME280;46198;51.464;-0.066;2022-11-02T04:00:05;101482.75;;;8.81;100.00
60355;BME280;46198;51.464;-0.066;2022-11-02T04:02:43;101485.00;;;8.77;100.00
60355;BME280;46198;51.464;-0.066;2022-11-02T04:05:13;101485.63;;;8.79;100.00
60355;BME280;46198;51.464;-0.066;2022-11-02T04:07:45;101499.56;;;8.76;100.00
60355;BME280;46198;51.464;-0.066;2022-11-02T04:10:33;101511.81;;;8.72;100.00
60355;BME280;46198;51.464;-0.066;2022-11-02T04:13:04;101514.13;;;8.75;100.00
60355;BME280;46198;51.464;-0.066;2022-11-02T04:15:50;101515.19;;;8.74;100.00
60355;BME280;46198;51.464;-0.066;2022-11-02T04:18:20;101515.53;;;8.71;100.00
60355;BME280;46198;51.464;-0.066;2022-11-02T04:21:06;101519.94;;;8.72;100.00
60355;BME280;46198;51.464;-0.066;2022-11-02T04:23:34;101527.69;;;8.75;100.00
60355;BME280;46198;51.464;-0.066;2022-11-02T04:26:19;101531.78;;;8.71;100.00
60355;BME280;46198;51.464;-0.066;2022-11-02T04:28:48;101538.50;;;8.75;100.00
60355;BME280;46198;51.464;-0.066;2022-11-02T04:31:16;101543.00;;;8.68;100.00
60355;BME280;46198;51.464;-0.066;2022-11-02T04:33:45;101547.00;;;8.72;100.00
60355;BME280;46198;51.464;-0.066;2022-11-02T04:36:15;101559.22;;;8.68;100.00
60355;BME280;46198;51.464;-0.066;2022-11-02T04:38:49;101557.56;;;8.67;100.00
60355;BME280;46198;51.464;-0.066;2022-11-02T04:41:34;101560.28;;;8.67;100.00
60355;BME280;46198;51.464;-0.066;2022-11-02T04:44:37;101566.44;;;8.61;100.00
60355;BME280;46198;51.464;-0.066;2022-11-02T04:47:13;101573.53;;;8.62;100.00
60355;BME280;46198;51.464;-0.066;2022-11-02T04:49:44;101580.00;;;8.61;100.00
60355;BME280;46198;51.464;-0.066;2022-11-02T04:52:15;101573.53;;;8.62;100.00
60355;BME280;46198;51.464;-0.066;2022-11-02T04:54:47;101573.34;;;8.63;100.00
60355;BME280;46198;51.464;-0.066;2022-11-02T04:57:16;101567.66;;;8.58;100.00
60355;BME280;46198;51.464;-0.066;2022-11-02T04:59:44;101570.81;;;8.62;100.00
60355;BME280;46198;51.464;-0.066;2022-11-02T05:02:13;101576.91;;;8.64;100.00
60355;BME280;46198;51.464;-0.066;2022-11-02T05:04:44;101575.78;;;8.58;100.00
60355;BME280;46198;51.464;-0.066;2022-11-02T05:07:13;101576.63;;;8.59;100.00
60355;BME280;46198;51.464;-0.066;2022-11-02T05:09:41;101580.44;;;8.64;100.00
60355;BME280;46198;51.464;-0.066;2022-11-02T05:12:11;101572.25;;;8.58;100.00
60355;BME280;46198;51.464;-0.066;2022-11-02T05:14:39;101584.75;;;8.59;100.00
60355;BME280;46198;51.464;-0.066;2022-11-02T05:17:07;101588.84;;;8.55;100.00
60355;BME280;46198;51.464;-0.066;2022-11-02T05:19:37;101587.44;;;8.59;100.00
60355;BME280;46198;51.464;-0.066;2022-11-02T05:22:06;101591.19;;;8.58;100.00
60355;BME280;46198;51.464;-0.066;2022-11-02T05:24:34;101595.41;;;8.60;100.00
60355;BME280;46198;51.464;-0.066;2022-11-02T05:27:04;101607.16;;;8.53;100.00
60355;BME280;46198;51.464;-0.066;2022-11-02T05:29:35;101595.28;;;8.54;100.00
60355;BME280;46198;51.464;-0.066;2022-11-02T05:32:03;101595.28;;;8.54;100.00
60355;BME280;46198;51.464;-0.066;2022-11-02T05:34:32;101604.06;;;8.56;100.00
60355;BME280;46198;51.464;-0.066;2022-11-02T05:37:01;101596.78;;;8.56;100.00
60355;BME280;46198;51.464;-0.066;2022-11-02T05:39:31;101591.81;;;8.60;100.00
60355;BME280;46198;51.464;-0.066;2022-11-02T05:42:00;101589.13;;;8.60;100.00
60355;BME280;46198;51.464;-0.066;2022-11-02T05:44:28;101592.47;;;8.62;100.00
60355;BME280;46198;51.464;-0.066;2022-11-02T05:46:57;101595.75;;;8.57;100.00
60355;BME280;46198;51.464;-0.066;2022-11-02T05:49:25;101593.31;;;8.62;100.00
60355;BME280;46198;51.464;-0.066;2022-11-02T05:51:53;101597.44;;;8.58;100.00
60355;BME280;46198;51.464;-0.066;2022-11-02T05:54:21;101592.94;;;8.65;100.00
60355;BME280;46198;51.464;-0.066;2022-11-02T05:56:51;101590.81;;;8.61;100.00
60355;BME280;46198;51.464;-0.066;2022-11-02T05:59:19;101588.38;;;8.66;100.00
60355;BME280;46198;51.464;-0.066;2022-11-02T06:01:47;101588.56;;;8.64;100.00
60355;BME280;46198;51.464;-0.066;2022-11-02T06:04:15;101596.59;;;8.73;100.00
60355;BME280;46198;51.464;-0.066;2022-11-02T06:06:44;101595.09;;;8.70;100.00
60355;BME280;46198;51.464;-0.066;2022-11-02T06:09:12;101608.63;;;8.70;100.00
60355;BME280;46198;51.464;-0.066;2022-11-02T06:11:40;101591.53;;;8.70;100.00
60355;BME280;46198;51.464;-0.066;2022-11-02T06:14:10;101595.94;;;8.71;100.00
60355;BME280;46198;51.464;-0.066;2022-11-02T06:16:38;101588.47;;;8.73;100.00
60355;BME280;46198;51.464;-0.066;2022-11-02T06:19:06;101594.91;;;8.72;100.00
60355;BME280;46198;51.464;-0.066;2022-11-02T06:21:34;101585.56;;;8.74;100.00
60355;BME280;46198;51.464;-0.066;2022-11-02T06:24:03;101592.22;;;8.72;100.00
60355;BME280;46198;51.464;-0.066;2022-11-02T06:26:31;101595.09;;;8.70;100.00
60355;BME280;46198;51.464;-0.066;2022-11-02T06:28:59;101587.63;;;8.72;100.00
60355;BME280;46198;51.464;-0.066;2022-11-02T06:31:29;101591.34;;;8.71;100.00
60355;BME280;46198;51.464;-0.066;2022-11-02T06:33:57;101595.75;;;8.72;100.00
60355;BME280;46198;51.464;-0.066;2022-11-02T06:36:25;101596.84;;;8.78;100.00
60355;BME280;46198;51.464;-0.066;2022-11-02T06:38:53;101607.25;;;8.74;100.00
60355;BME280;46198;51.464;-0.066;2022-11-02T06:41:21;101595.63;;;8.80;100.00
60355;BME280;46198;51.464;-0.066;2022-11-02T06:43:49;101591.06;;;8.81;100.00
60355;BME280;46198;51.464;-0.066;2022-11-02T06:46:17;101579.41;;;8.80;100.00
60355;BME280;46198;51.464;-0.066;2022-11-02T06:48:48;101594.22;;;8.84;100.00
60355;BME280;46198;51.464;-0.066;2022-11-02T06:51:16;101602.72;;;8.81;100.00
60355;BME280;46198;51.464;-0.066;2022-11-02T06:53:44;101608.78;;;8.83;100.00
60355;BME280;46198;51.464;-0.066;2022-11-02T06:56:12;101600.66;;;8.83;100.00
60355;BME280;46198;51.464;-0.066;2022-11-02T06:58:40;101599.84;;;8.83;100.00
60355;BME280;46198;51.464;-0.066;2022-11-02T07:01:09;101610.47;;;8.84;100.00
60355;BME280;46198;51.464;-0.066;2022-11-02T07:03:39;101612.72;;;8.81;100.00
60355;BME280;46198;51.464;-0.066;2022-11-02T07:06:08;101620.00;;;8.80;100.00
60355;BME280;46198;51.464;-0.066;2022-11-02T07:08:40;101624.66;;;8.86;100.00
60355;BME280;46198;51.464;-0.066;2022-11-02T07:11:12;101621.97;;;8.86;100.00
60355;BME280;46198;51.464;-0.066;2022-11-02T07:13:40;101622.63;;;8.88;100.00
60355;BME280;46198;51.464;-0.066;2022-11-02T07:16:08;101622.88;;;8.94;100.00
60355;BME280;46198;51.464;-0.066;2022-11-02T07:18:36;101626.16;;;8.89;100.00
60355;BME280;46198;51.464;-0.066;2022-11-02T07:21:05;101631.13;;;8.85;100.00
60355;BME280;46198;51.464;-0.066;2022-11-02T07:23:34;101629.69;;;8.90;100.00
60355;BME280;46198;51.464;-0.066;2022-11-02T07:26:02;101627.25;;;8.95;100.00
60355;BME280;46198;51.464;-0.066;2022-11-02T07:28:31;101635.50;;;8.86;100.00
60355;BME280;46198;51.464;-0.066;2022-11-02T07:30:59;101637.66;;;8.91;100.00
60355;BME280;46198;51.464;-0.066;2022-11-02T07:33:27;101630.53;;;8.90;100.00
60355;BME280;46198;51.464;-0.066;2022-11-02T07:35:55;101638.75;;;8.97;100.00
60355;BME280;46198;51.464;-0.066;2022-11-02T07:38:23;101633.06;;;8.92;100.00
60355;BME280;46198;51.464;-0.066;2022-11-02T07:40:53;101639.13;;;8.94;100.00
60355;BME280;46198;51.464;-0.066;2022-11-02T07:43:21;101627.53;;;9.00;100.00
60355;BME280;46198;51.464;-0.066;2022-11-02T07:46:12;101637.53;;;8.99;100.00
60355;BME280;46198;51.464;-0.066;2022-11-02T07:48:43;101636.31;;;9.02;100.00
60355;BME280;46198;51.464;-0.066;2022-11-02T07:51:12;101645.47;;;9.01;100.00
60355;BME280;46198;51.464;-0.066;2022-11-02T07:53:40;101646.78;;;9.05;100.00
60355;BME280;46198;51.464;-0.066;2022-11-02T07:56:13;101638.81;;;9.03;100.00
60355;BME280;46198;51.464;-0.066;2022-11-02T07:58:46;101652.47;;;9.10;100.00
60355;BME280;46198;51.464;-0.066;2022-11-02T08:01:14;101653.13;;;9.12;100.00
60355;BME280;46198;51.464;-0.066;2022-11-02T08:03:43;101643.56;;;9.16;100.00
60355;BME280;46198;51.464;-0.066;2022-11-02T08:06:11;101643.19;;;9.19;100.00
60355;BME280;46198;51.464;-0.066;2022-11-02T08:08:40;101655.91;;;9.19;100.00
60355;BME280;46198;51.464;-0.066;2022-11-02T08:11:08;101652.41;;;9.25;100.00
60355;BME280;46198;51.464;-0.066;2022-11-02T08:13:38;101652.97;;;9.35;100.00
60355;BME280;46198;51.464;-0.066;2022-11-02T08:16:06;101658.81;;;9.39;100.00
60355;BME280;46198;51.464;-0.066;2022-11-02T08:18:34;101661.81;;;9.44;100.00
60355;BME280;46198;51.464;-0.066;2022-11-02T08:21:03;101659.56;;;9.47;100.00
60355;BME280;46198;51.464;-0.066;2022-11-02T08:23:33;101663.00;;;9.56;100.00
60355;BME280;46198;51.464;-0.066;2022-11-02T08:26:01;101670.72;;;9.59;100.00
60355;BME280;46198;51.464;-0.066;2022-11-02T08:28:30;101661.63;;;9.67;100.00
60355;BME280;46198;51.464;-0.066;2022-11-02T08:31:03;101662.25;;;9.69;100.00
60355;BME280;46198;51.464;-0.066;2022-11-02T08:33:32;101647.94;;;9.75;100.00
60355;BME280;46198;51.464;-0.066;2022-11-02T08:36:03;101653.69;;;9.87;100.00
60355;BME280;46198;51.464;-0.066;2022-11-02T08:38:31;101654.78;;;9.92;100.00
60355;BME280;46198;51.464;-0.066;2022-11-02T08:40:59;101665.69;;;9.99;100.00
60355;BME280;46198;51.464;-0.066;2022-11-02T08:43:27;101652.81;;;10.08;100.00
60355;BME280;46198;51.464;-0.066;2022-11-02T08:45:56;101661.00;;;10.14;100.00
60355;BME280;46198;51.464;-0.066;2022-11-02T08:48:44;101663.31;;;10.17;100.00
60355;BME280;46198;51.464;-0.066;2022-11-02T08:51:12;101657.00;;;10.32;100.00
60355;BME280;46198;51.464;-0.066;2022-11-02T08:53:41;101664.78;;;10.41;100.00
60355;BME280;46198;51.464;-0.066;2022-11-02T08:56:17;101672.16;;;10.48;100.00
60355;BME280;46198;51.464;-0.066;2022-11-02T08:58:45;101661.31;;;10.54;100.00
60355;BME280;46198;51.464;-0.066;2022-11-02T09:01:13;101656.56;;;10.63;100.00
60355;BME280;46198;51.464;-0.066;2022-11-02T09:03:41;101655.97;;;10.68;100.00
60355;BME280;46198;51.464;-0.066;2022-11-02T09:06:11;101654.91;;;10.69;100.00
60355;BME280;46198;51.464;-0.066;2022-11-02T09:08:39;101656.63;;;10.76;100.00
60355;BME280;46198;51.464;-0.066;2022-11-02T09:11:07;101655.88;;;10.89;100.00
60355;BME280;46198;51.464;-0.066;2022-11-02T09:13:36;101661.13;;;10.97;100.00
60355;BME280;46198;51.464;-0.066;2022-11-02T09:16:05;101658.66;;;11.02;100.00
60355;BME280;46198;51.464;-0.066;2022-11-02T09:18:33;101645.91;;;11.09;100.00
60355;BME280;46198;51.464;-0.066;2022-11-02T09:21:01;101639.69;;;11.16;100.00
60355;BME280;46198;51.464;-0.066;2022-11-02T09:23:32;101643.06;;;11.31;100.00
60355;BME280;46198;51.464;-0.066;2022-11-02T09:26:00;101640.16;;;11.39;100.00
60355;BME280;46198;51.464;-0.066;2022-11-02T09:28:28;101635.34;;;11.41;100.00
60355;BME280;46198;51.464;-0.066;2022-11-02T09:30:56;101621.56;;;11.49;100.00
60355;BME280;46198;51.464;-0.066;2022-11-02T09:33:24;101618.88;;;11.63;100.00
60355;BME280;46198;51.464;-0.066;2022-11-02T09:35:55;101614.47;;;11.75;100.00
60355;BME280;46198;51.464;-0.066;2022-11-02T09:38:28;101615.56;;;11.87;100.00
60355;BME280;46198;51.464;-0.066;2022-11-02T09:41:11;101615.78;;;11.92;100.00
60355;BME280;46198;51.464;-0.066;2022-11-02T09:43:52;101623.91;;;12.12;98.39
60355;BME280;46198;51.464;-0.066;2022-11-02T09:46:25;101598.78;;;12.30;97.69
60355;BME280;46198;51.464;-0.066;2022-11-02T09:48:56;101602.28;;;12.37;100.00
60355;BME280;46198;51.464;-0.066;2022-11-02T09:51:27;101611.91;;;12.53;94.44
60355;BME280;46198;51.464;-0.066;2022-11-02T09:54:05;101613.59;;;12.54;92.40
60355;BME280;46198;51.464;-0.066;2022-11-02T09:56:42;101628.00;;;12.68;94.77
60355;BME280;46198;51.464;-0.066;2022-11-02T09:59:13;101607.88;;;12.69;95.20
60355;BME280;46198;51.464;-0.066;2022-11-02T10:01:55;101609.13;;;12.73;95.21
60355;BME280;46198;51.464;-0.066;2022-11-02T10:04:43;101614.38;;;12.61;97.67
60355;BME280;46198;51.464;-0.066;2022-11-02T10:07:26;101613.97;;;12.64;95.27
60355;BME280;46198;51.464;-0.066;2022-11-02T10:10:00;101616.09;;;12.62;96.22
60355;BME280;46198;51.464;-0.066;2022-11-02T10:12:37;101605.59;;;12.66;98.21
60355;BME280;46198;51.464;-0.066;2022-11-02T10:15:13;101604.03;;;12.83;94.84
60355;BME280;46198;51.464;-0.066;2022-11-02T10:17:44;101596.88;;;12.96;93.84
60355;BME280;46198;51.464;-0.066;2022-11-02T10:20:23;101592.88;;;12.98;96.14
60355;BME280;46198;51.464;-0.066;2022-11-02T10:22:54;101600.09;;;13.18;92.88
60355;BME280;46198;51.464;-0.066;2022-11-02T10:25:25;101593.78;;;13.24;89.50
60355;BME280;46198;51.464;-0.066;2022-11-02T10:27:59;101594.59;;;13.24;90.09
60355;BME280;46198;51.464;-0.066;2022-11-02T10:30:31;101592.91;;;13.37;90.40
60355;BME280;46198;51.464;-0.066;2022-11-02T10:32:59;101587.06;;;13.33;91.32
60355;BME280;46198;51.464;-0.066;2022-11-02T10:35:33;101588.63;;;13.47;92.92
60355;BME280;46198;51.464;-0.066;2022-11-02T10:38:33;101583.97;;;13.55;93.27
60355;BME280;46198;51.464;-0.066;2022-11-02T10:41:15;101579.00;;;13.45;89.60
60355;BME280;46198;51.464;-0.066;2022-11-02T10:43:59;101571.53;;;13.59;92.95
60355;BME280;46198;51.464;-0.066;2022-11-02T10:46:57;101563.31;;;13.65;91.19
60355;BME280;46198;51.464;-0.066;2022-11-02T10:49:45;101574.53;;;13.75;93.95
60355;BME280;46198;51.464;-0.066;2022-11-02T10:52:17;101569.94;;;13.76;91.90
60355;BME280;46198;51.464;-0.066;2022-11-02T10:54:48;101566.31;;;13.82;94.15
60355;BME280;46198;51.464;-0.066;2022-11-02T10:57:21;101567.47;;;13.68;92.45
60355;BME280;46198;51.464;-0.066;2022-11-02T11:00:22;101556.13;;;13.71;93.19
60355;BME280;46198;51.464;-0.066;2022-11-02T11:03:01;101545.41;;;13.69;95.31
60355;BME280;46198;51.464;-0.066;2022-11-02T11:05:29;101540.63;;;13.65;93.27
60355;BME280;46198;51.464;-0.066;2022-11-02T11:07:57;101541.13;;;13.80;94.75
60355;BME280;46198;51.464;-0.066;2022-11-02T11:10:26;101529.22;;;13.74;94.60
60355;BME280;46198;51.464;-0.066;2022-11-02T11:12:54;101506.13;;;13.95;94.35
60355;BME280;46198;51.464;-0.066;2022-11-02T11:15:29;101498.31;;;13.99;97.11
60355;BME280;46198;51.464;-0.066;2022-11-02T11:18:18;101498.00;;;14.07;94.66
60355;BME280;46198;51.464;-0.066;2022-11-02T11:21:07;101500.59;;;14.02;92.60
60355;BME280;46198;51.464;-0.066;2022-11-02T11:23:35;101508.28;;;14.12;93.29
60355;BME280;46198;51.464;-0.066;2022-11-02T11:26:07;101493.16;;;14.09;94.03
60355;BME280;46198;51.464;-0.066;2022-11-02T11:28:51;101490.59;;;14.14;96.14
60355;BME280;46198;51.464;-0.066;2022-11-02T11:31:22;101491.63;;;14.13;94.56
60355;BME280;46198;51.464;-0.066;2022-11-02T11:33:52;101493.91;;;14.16;94.57
60355;BME280;46198;51.464;-0.066;2022-11-02T11:36:26;101482.88;;;14.11;94.64
60355;BME280;46198;51.464;-0.066;2022-11-02T11:38:59;101484.66;;;13.99;94.18
60355;BME280;46198;51.464;-0.066;2022-11-02T11:41:28;101477.53;;;13.98;94.69
60355;BME280;46198;51.464;-0.066;2022-11-02T11:44:01;101464.63;;;13.87;94.86
60355;BME280;46198;51.464;-0.066;2022-11-02T11:46:49;101456.72;;;13.79;97.05
60355;BME280;46198;51.464;-0.066;2022-11-02T11:49:22;101461.19;;;13.73;98.45
60355;BME280;46198;51.464;-0.066;2022-11-02T11:52:19;101455.81;;;13.66;98.93
60355;BME280;46198;51.464;-0.066;2022-11-02T11:54:59;101437.63;;;13.60;98.21
60355;BME280;46198;51.464;-0.066;2022-11-02T11:57:30;101442.38;;;13.65;100.00
60355;BME280;46198;51.464;-0.066;2022-11-02T11:59:59;101434.66;;;13.62;100.00
60355;BME280;46198;51.464;-0.066;2022-11-02T12:02:33;101427.28;;;13.44;100.00
60355;BME280;46198;51.464;-0.066;2022-11-02T12:05:13;101424.81;;;13.61;100.00
60355;BME280;46198;51.464;-0.066;2022-11-02T12:08:14;101420.56;;;13.65;100.00
60355;BME280;46198;51.464;-0.066;2022-11-02T12:11:09;101411.25;;;13.72;99.44
60355;BME280;46198;51.464;-0.066;2022-11-02T12:16:51;101404.03;;;13.78;96.13
60355;BME280;46198;51.464;-0.066;2022-11-02T12:19:32;101382.59;;;13.82;95.41
60355;BME280;46198;51.464;-0.066;2022-11-02T12:22:12;101384.56;;;13.74;90.61
60355;BME280;46198;51.464;-0.066;2022-11-02T12:25:12;101372.00;;;13.73;90.06
60355;BME280;46198;51.464;-0.066;2022-11-02T12:27:51;101384.88;;;13.85;90.82
60355;BME280;46198;51.464;-0.066;2022-11-02T12:30:29;101370.97;;;13.86;89.23
60355;BME280;46198;51.464;-0.066;2022-11-02T12:33:13;101368.72;;;13.83;89.06
60355;BME280;46198;51.464;-0.066;2022-11-02T12:36:03;101378.59;;;13.84;85.96
60355;BME280;46198;51.464;-0.066;2022-11-02T12:38:50;101363.72;;;13.80;83.55
60355;BME280;46198;51.464;-0.066;2022-11-02T12:41:33;101365.75;;;13.85;82.44
60355;BME280;46198;51.464;-0.066;2022-11-02T12:44:12;101360.75;;;13.82;83.64
60355;BME280;46198;51.464;-0.066;2022-11-02T12:46:47;101358.41;;;13.85;83.04
60355;BME280;46198;51.464;-0.066;2022-11-02T12:49:30;101342.78;;;13.92;81.89
60355;BME280;46198;51.464;-0.066;2022-11-02T12:52:12;101350.13;;;13.92;80.24
60355;BME280;46198;51.464;-0.066;2022-11-02T12:54:47;101333.97;;;13.90;79.62
60355;BME280;46198;51.464;-0.066;2022-11-02T12:57:17;101335.44;;;13.93;78.50
60355;BME280;46198;51.464;-0.066;2022-11-02T12:59:48;101331.47;;;13.89;76.82
60355;BME280;46198;51.464;-0.066;2022-11-02T13:02:25;101326.16;;;13.94;78.80
60355;BME280;46198;51.464;-0.066;2022-11-02T13:04:57;101325.69;;;13.97;79.45
60355;BME280;46198;51.464;-0.066;2022-11-02T13:07:32;101328.53;;;13.90;77.72
60355;BME280;46198;51.464;-0.066;2022-11-02T13:10:11;101331.47;;;13.89;76.27